Time;durP1;ratioP1;P1;durP2;ratioP2;P2;SDS_P1;SDS_P2;PMS_P1;PMS_P2;Temp;Humidity;BMP_temperature;BMP_pressure;BME280_temperature;BME280_humidity;BME280_pressure;Samples;Min_cycle;Max_cycle;Signal;HPM_P1;HPM_P2
2023/09/23 00:01:25;;;;;;;0.80;0.50;;;;;;;14.02;100.00;97144.50;6246247;28;20250;-51
2023/09/23 00:04:29;;;;;;;0.50;0.50;;;;;;;13.92;100.00;97135.44;6247356;28;20251;-53
2023/09/23 00:07:31;;;;;;;1.30;0.70;;;;;;;13.89;100.00;97140.56;6244191;28;20242;-52
2023/09/23 00:10:34;;;;;;;0.40;0.40;;;;;;;13.85;100.00;97136.84;6249349;28;20243;-53
2023/09/23 00:13:36;;;;;;;0.40;0.40;;;;;;;13.86;100.00;97136.56;6248121;28;20227;-52
2023/09/23 00:16:38;;;;;;;0.43;0.43;;;;;;;13.86;100.00;97117.03;6249716;28;20309;-50
2023/09/23 00:19:40;;;;;;;0.37;0.30;;;;;;;13.85;100.00;97112.75;6248812;28;20681;-53
2023/09/23 00:22:46;;;;;;;0.60;0.50;;;;;;;13.87;100.00;97110.59;6248616;28;20237;-52
2023/09/23 00:25:49;;;;;;;0.70;0.60;;;;;;;13.83;100.00;97139.78;6244781;28;20284;-53
2023/09/23 00:28:51;;;;;;;0.40;0.40;;;;;;;13.79;100.00;97162.03;6248861;28;20377;-53
2023/09/23 00:31:54;;;;;;;0.73;0.47;;;;;;;13.74;100.00;97178.91;6233417;28;20238;-50
2023/09/23 00:34:56;;;;;;;0.60;0.50;;;;;;;13.76;100.00;97171.41;6237023;28;20316;-52
2023/09/23 00:37:59;;;;;;;0.63;0.50;;;;;;;13.77;100.00;97164.19;6259637;28;20704;-53
2023/09/23 00:41:06;;;;;;;0.40;0.40;;;;;;;13.81;100.00;97167.91;6241791;28;20250;-53
2023/09/23 00:44:09;;;;;;;0.40;0.40;;;;;;;13.80;100.00;97166.31;6248784;28;20266;-51
2023/09/23 00:47:13;;;;;;;0.60;0.60;;;;;;;13.81;100.00;97171.41;6238727;28;20247;-51
2023/09/23 00:50:18;;;;;;;0.50;0.50;;;;;;;13.78;100.00;97177.28;6244238;28;20242;-53
2023/09/23 00:53:21;;;;;;;0.50;0.50;;;;;;;13.69;100.00;97152.16;6241056;28;20318;-51
2023/09/23 00:56:24;;;;;;;0.37;0.37;;;;;;;13.64;100.00;97150.34;6245733;28;20227;-53
2023/09/23 00:59:29;;;;;;;0.50;0.40;;;;;;;13.75;100.00;97156.44;6244002;28;20716;-52
2023/09/23 01:02:33;;;;;;;0.80;0.50;;;;;;;13.75;100.00;97155.63;6256194;28;20242;-52
2023/09/23 01:05:36;;;;;;;0.50;0.50;;;;;;;13.74;100.00;97152.13;6257325;28;20605;-53
2023/09/23 01:08:39;;;;;;;0.50;0.40;;;;;;;13.60;100.00;97135.91;6241551;28;20234;-53
2023/09/23 01:11:41;;;;;;;0.47;0.47;;;;;;;13.72;100.00;97159.66;6260732;28;20243;-54
2023/09/23 01:14:43;;;;;;;0.40;0.40;;;;;;;13.70;100.00;97163.69;6244085;28;20370;-53
2023/09/23 01:17:47;;;;;;;0.50;0.47;;;;;;;13.68;100.00;97183.47;6245765;28;20235;-53
2023/09/23 01:20:51;;;;;;;0.93;0.50;;;;;;;13.57;100.00;97159.72;6253338;28;20702;-53
2023/09/23 01:23:53;;;;;;;0.40;0.40;;;;;;;13.65;100.00;97189.41;6244096;28;20227;-52
2023/09/23 01:26:55;;;;;;;0.50;0.50;;;;;;;13.59;100.00;97200.38;6242397;28;20370;-52
2023/09/23 01:29:57;;;;;;;0.70;0.60;;;;;;;13.62;100.00;97178.44;6243221;28;20738;-51
2023/09/23 01:32:59;;;;;;;0.50;0.50;;;;;;;13.66;100.00;97182.97;6244460;28;20235;-52
2023/09/23 01:36:03;;;;;;;0.60;0.60;;;;;;;13.65;100.00;97193.97;6248872;28;20218;-53
2023/09/23 01:39:07;;;;;;;0.80;0.60;;;;;;;13.64;100.00;97193.16;6247009;28;20591;-52
2023/09/23 01:42:09;;;;;;;0.50;0.50;;;;;;;13.63;100.00;97207.59;6241867;28;20318;-53
2023/09/23 01:45:13;;;;;;;0.50;0.50;;;;;;;13.62;100.00;97218.59;6231006;28;20215;-52
2023/09/23 01:48:17;;;;;;;0.40;0.40;;;;;;;13.61;100.00;97238.41;6251837;28;20699;-53
2023/09/23 01:51:19;;;;;;;1.17;0.60;;;;;;;13.63;100.00;97258.44;6248511;28;20242;-54
2023/09/23 01:54:21;;;;;;;0.87;0.60;;;;;;;13.65;100.00;97268.91;6247063;28;20529;-54
2023/09/23 01:57:24;;;;;;;0.60;0.40;;;;;;;13.66;100.00;97282.00;6246069;28;20233;-53
2023/09/23 02:00:28;;;;;;;1.30;0.77;;;;;;;13.66;100.00;97270.50;6247058;28;20223;-54
2023/09/23 02:03:31;;;;;;;0.70;0.70;;;;;;;13.64;100.00;97268.09;6247681;28;20558;-53
2023/09/23 02:06:38;;;;;;;0.70;0.70;;;;;;;13.64;100.00;97259.25;6250679;28;20606;-52
2023/09/23 02:09:40;;;;;;;0.67;0.67;;;;;;;13.64;100.00;97249.38;6246601;28;20735;-53
2023/09/23 02:12:43;;;;;;;0.80;0.70;;;;;;;13.56;100.00;97239.22;6244330;28;20310;-52
2023/09/23 02:15:46;;;;;;;1.17;0.77;;;;;;;13.48;100.00;97226.38;6246225;28;20250;-53
2023/09/23 02:18:50;;;;;;;0.93;0.83;;;;;;;13.43;100.00;97219.16;6257674;28;20342;-53
2023/09/23 02:21:53;;;;;;;1.23;0.70;;;;;;;13.39;100.00;97225.31;6253791;28;20365;-53
2023/09/23 02:24:55;;;;;;;1.20;0.70;;;;;;;13.37;100.00;97211.41;6247006;28;20728;-53
2023/09/23 02:27:57;;;;;;;1.93;0.80;;;;;;;13.28;100.00;97221.06;6246493;28;20597;-52
2023/09/23 02:30:59;;;;;;;0.97;0.90;;;;;;;13.29;100.00;97236.03;6249214;28;20242;-53
2023/09/23 02:34:02;;;;;;;0.70;0.70;;;;;;;13.30;100.00;97242.97;6246044;28;20226;-52
2023/09/23 02:37:04;;;;;;;0.80;0.80;;;;;;;13.29;100.00;97238.72;6256435;28;20217;-52
2023/09/23 02:40:17;;;;;;;0.87;0.83;;;;;;;13.15;100.00;97233.91;6251936;28;20332;-53
2023/09/23 02:43:19;;;;;;;1.10;1.00;;;;;;;13.21;100.00;97266.00;6245903;28;20226;-52
2023/09/23 02:46:21;;;;;;;1.43;1.23;;;;;;;13.20;100.00;97265.19;6261898;28;20245;-53
2023/09/23 02:49:23;;;;;;;1.00;0.90;;;;;;;13.23;100.00;97263.88;6247912;28;20703;-50
2023/09/23 02:52:25;;;;;;;1.87;1.63;;;;;;;13.19;100.00;97282.28;6231639;28;20727;-51
2023/09/23 02:55:27;;;;;;;1.80;1.27;;;;;;;13.20;100.00;97283.09;6243138;28;20285;-53
2023/09/23 02:58:29;;;;;;;2.00;1.33;;;;;;;13.21;100.00;97276.69;6244478;28;20232;-51
2023/09/23 03:01:33;;;;;;;3.77;1.50;;;;;;;13.20;100.00;97277.75;6244569;28;20604;-53
2023/09/23 03:04:35;;;;;;;1.77;1.33;;;;;;;13.17;100.00;97279.91;6246570;28;20311;-52
2023/09/23 03:07:39;;;;;;;3.50;1.63;;;;;;;13.15;100.00;97278.53;6232409;28;20233;-53
2023/09/23 03:10:41;;;;;;;2.53;1.70;;;;;;;13.01;100.00;97256.09;6244084;28;20247;-53
2023/09/23 03:13:44;;;;;;;2.10;1.90;;;;;;;13.13;100.00;97281.50;6246087;28;20242;-52
2023/09/23 03:16:49;;;;;;;2.53;1.73;;;;;;;13.10;100.00;97295.41;6246089;28;20681;-53
2023/09/23 03:19:52;;;;;;;2.00;1.80;;;;;;;13.10;100.00;97292.75;6244929;28;20301;-53
2023/09/23 03:22:56;;;;;;;2.87;2.20;;;;;;;13.10;100.00;97281.22;6246919;28;20231;-53
2023/09/23 03:26:00;;;;;;;2.90;1.80;;;;;;;13.08;100.00;97275.34;6250809;28;20278;-52
2023/09/23 03:29:06;;;;;;;2.30;1.87;;;;;;;13.08;100.00;97278.81;6246632;28;20731;-54
2023/09/23 03:32:08;;;;;;;3.20;2.10;;;;;;;13.05;100.00;97283.91;6242802;28;20242;-53
2023/09/23 03:35:20;;;;;;;5.43;1.87;;;;;;;12.91;100.00;97280.97;6233041;28;20218;-52
2023/09/23 03:38:24;;;;;;;2.43;2.20;;;;;;;13.02;100.00;97314.66;6238669;28;20247;-51
2023/09/23 03:41:30;;;;;;;2.33;2.13;;;;;;;13.06;100.00;97310.38;6254325;28;20605;-53
2023/09/23 03:44:35;;;;;;;2.83;2.10;;;;;;;13.09;100.00;97317.06;6235092;28;20297;-53
2023/09/23 03:47:37;;;;;;;2.47;2.20;;;;;;;13.12;100.00;97314.66;6246667;28;20739;-54
2023/09/23 03:50:39;;;;;;;3.30;2.17;;;;;;;13.09;100.00;97303.69;6261229;28;20246;-54
2023/09/23 03:53:43;;;;;;;2.17;1.90;;;;;;;13.12;100.00;97306.63;6245338;28;21065;-54
2023/09/23 03:56:46;;;;;;;2.33;2.10;;;;;;;13.12;100.00;97303.97;6246087;28;20270;-53
2023/09/23 03:59:49;;;;;;;3.30;2.43;;;;;;;13.13;100.00;97307.44;6246951;28;20229;-54
2023/09/23 04:02:50;;;;;;;3.10;2.30;;;;;;;13.12;100.00;97312.00;6249139;28;20387;-54
2023/09/23 04:05:57;;;;;;;2.47;2.20;;;;;;;13.10;100.00;97315.97;6232839;28;20227;-54
2023/09/23 04:09:00;;;;;;;4.47;2.63;;;;;;;13.06;100.00;97301.56;6238396;28;20223;-52
2023/09/23 04:12:03;;;;;;;4.67;2.83;;;;;;;13.04;100.00;97301.00;6247079;28;20709;-51
2023/09/23 04:15:07;;;;;;;3.50;2.77;;;;;;;13.00;100.00;97291.91;6246362;28;20740;-53
2023/09/23 04:18:10;;;;;;;4.10;2.63;;;;;;;12.96;100.00;97298.88;6249739;28;20215;-52
2023/09/23 04:21:12;;;;;;;3.00;2.70;;;;;;;12.94;100.00;97311.69;6244477;28;20298;-53
2023/09/23 04:24:14;;;;;;;4.50;3.07;;;;;;;12.95;100.00;97311.44;6247099;28;20219;-52
2023/09/23 04:27:17;;;;;;;3.10;2.80;;;;;;;12.96;100.00;97315.72;6244916;28;20211;-52
2023/09/23 04:30:19;;;;;;;2.33;2.13;;;;;;;12.78;100.00;97316.22;6247143;28;20228;-53
2023/09/23 04:33:47;;;;;;;2.20;2.00;;;;;;;13.00;100.00;97327.47;6244322;28;20370;-53
2023/09/23 04:36:49;;;;;;;2.77;2.57;;;;;;;13.02;100.00;97325.34;6243478;28;20223;-54
2023/09/23 04:39:52;;;;;;;2.90;1.90;;;;;;;13.03;100.00;97331.50;6248850;28;20235;-52
2023/09/23 04:42:54;;;;;;;5.90;2.60;;;;;;;13.04;100.00;97352.63;6242298;28;20235;-51
2023/09/23 04:46:21;;;;;;;2.80;2.37;;;;;;;13.02;100.00;97352.09;6245148;28;20219;-52
2023/09/23 04:49:23;;;;;;;2.97;2.60;;;;;;;12.97;100.00;97364.66;6240169;28;20768;-51
2023/09/23 04:52:28;;;;;;;4.20;2.43;;;;;;;12.95;100.00;97350.72;6244846;28;20227;-53
2023/09/23 04:55:32;;;;;;;2.73;2.27;;;;;;;12.95;100.00;97353.41;6247771;28;20215;-51
2023/09/23 04:58:34;;;;;;;2.13;1.93;;;;;;;12.97;100.00;97357.44;6242058;28;20223;-53
2023/09/23 05:01:36;;;;;;;2.20;2.00;;;;;;;12.99;100.00;97365.97;6245558;28;20231;-53
2023/09/23 05:04:38;;;;;;;2.57;2.37;;;;;;;13.00;100.00;97366.78;6246272;28;20223;-54
2023/09/23 05:07:40;;;;;;;2.30;1.87;;;;;;;13.04;100.00;97378.56;6244090;28;20295;-53
2023/09/23 05:10:42;;;;;;;2.00;1.80;;;;;;;13.07;100.00;97383.38;6247671;28;20300;-52
2023/09/23 05:13:44;;;;;;;1.93;1.70;;;;;;;13.07;100.00;97380.72;6248691;28;20227;-53
2023/09/23 05:16:48;;;;;;;2.00;1.83;;;;;;;13.06;100.00;97395.16;6252937;28;20235;-50
2023/09/23 05:19:49;;;;;;;1.70;1.60;;;;;;;13.11;100.00;97397.84;6248714;28;20230;-54
2023/09/23 05:22:53;;;;;;;1.97;1.50;;;;;;;13.11;100.00;97406.66;6245410;28;20320;-54
2023/09/23 05:25:57;;;;;;;1.90;1.70;;;;;;;13.11;100.00;97417.38;6254847;28;20235;-52
2023/09/23 05:29:00;;;;;;;2.10;1.63;;;;;;;13.12;100.00;97424.31;6257317;28;20950;-54
2023/09/23 05:32:03;;;;;;;1.77;1.63;;;;;;;13.13;100.00;97422.44;6255413;28;20235;-53
2023/09/23 05:35:10;;;;;;;1.60;1.37;;;;;;;13.15;100.00;97423.78;6248495;28;20232;-52
2023/09/23 05:38:13;;;;;;;1.97;1.30;;;;;;;13.12;100.00;97418.97;6235101;28;20227;-52
2023/09/23 05:41:15;;;;;;;2.03;1.20;;;;;;;13.09;100.00;97422.16;6252281;28;20239;-53
2023/09/23 05:44:18;;;;;;;2.53;1.17;;;;;;;13.13;100.00;97428.59;6253516;28;20219;-53
2023/09/23 05:47:23;;;;;;;2.20;1.10;;;;;;;13.14;100.00;97435.53;6247411;28;20233;-53
2023/09/23 05:50:25;;;;;;;1.10;1.00;;;;;;;13.16;100.00;97436.09;6248090;28;20238;-50
2023/09/23 05:53:27;;;;;;;1.10;1.00;;;;;;;13.19;100.00;97445.44;6247070;28;20230;-52
2023/09/23 05:56:29;;;;;;;1.57;1.10;;;;;;;13.23;100.00;97446.56;6257524;28;20313;-54
2023/09/23 05:59:31;;;;;;;1.83;1.00;;;;;;;13.27;100.00;97457.53;6252088;28;20245;-54
2023/09/23 06:02:35;;;;;;;1.00;0.90;;;;;;;13.24;100.00;97464.22;6251380;28;20219;-52
2023/09/23 06:05:38;;;;;;;0.90;0.90;;;;;;;13.24;100.00;97476.78;6246213;28;20720;-53
2023/09/23 06:08:41;;;;;;;1.20;1.10;;;;;;;13.21;100.00;97474.63;6247450;28;20314;-54
2023/09/23 06:11:44;;;;;;;1.30;1.20;;;;;;;13.22;100.00;97476.25;6257590;28;20239;-51
2023/09/23 06:14:46;;;;;;;1.20;1.10;;;;;;;13.22;100.00;97486.97;6246717;28;20259;-53
2023/09/23 06:17:48;;;;;;;3.07;1.47;;;;;;;13.20;100.00;97481.03;6252222;28;20235;-54
2023/09/23 06:21:00;;;;;;;1.07;0.97;;;;;;;13.16;100.00;97476.22;6246881;28;20281;-54
2023/09/23 06:24:06;;;;;;;1.73;1.20;;;;;;;13.16;100.00;97483.44;6254036;28;20693;-53
2023/09/23 06:27:16;;;;;;;1.10;1.00;;;;;;;13.18;100.00;97481.28;6238653;28;20215;-53
2023/09/23 06:30:19;;;;;;;2.40;1.00;;;;;;;13.20;100.00;97483.69;6244549;28;20219;-54
2023/09/23 06:33:21;;;;;;;1.53;1.00;;;;;;;13.16;100.00;97494.16;6243390;28;20215;-54
2023/09/23 06:36:23;;;;;;;1.77;1.20;;;;;;;13.15;100.00;97489.84;6246968;28;20235;-53
2023/09/23 06:39:25;;;;;;;1.70;1.13;;;;;;;13.16;100.00;97488.78;6248832;28;20232;-53
2023/09/23 06:42:27;;;;;;;1.27;1.10;;;;;;;13.14;100.00;97499.72;6253705;28;20227;-53
2023/09/23 06:45:29;;;;;;;1.00;0.90;;;;;;;13.18;100.00;97497.34;6248611;28;20235;-54
2023/09/23 06:48:31;;;;;;;1.10;1.00;;;;;;;13.21;100.00;97509.41;6244283;28;20235;-54
2023/09/23 06:51:34;;;;;;;2.20;1.10;;;;;;;13.04;100.00;97499.69;6241461;28;20999;-53
2023/09/23 06:54:36;;;;;;;1.93;1.30;;;;;;;13.16;100.00;97512.88;6249262;28;20723;-54
2023/09/23 06:57:38;;;;;;;2.93;1.30;;;;;;;13.11;100.00;97497.59;6253742;28;20230;-53
2023/09/23 07:00:40;;;;;;;1.30;1.17;;;;;;;13.07;100.00;97501.84;6250413;28;20223;-53
2023/09/23 07:03:42;;;;;;;1.60;1.30;;;;;;;13.12;100.00;97519.78;6242387;28;20267;-53
2023/09/23 07:06:44;;;;;;;1.50;1.27;;;;;;;13.12;100.00;97535.84;6248843;28;20215;-53
2023/09/23 07:09:46;;;;;;;1.20;1.10;;;;;;;13.11;100.00;97534.25;6245335;28;20223;-53
2023/09/23 07:12:48;;;;;;;1.30;1.20;;;;;;;13.07;100.00;97539.31;6253576;28;20892;-54
2023/09/23 07:15:50;;;;;;;1.13;1.03;;;;;;;13.07;100.00;97533.94;6247138;28;20297;-51
2023/09/23 07:18:53;;;;;;;1.60;1.10;;;;;;;12.94;100.00;97514.91;6251685;28;20700;-54
2023/09/23 07:21:55;;;;;;;1.70;1.20;;;;;;;13.10;100.00;97551.34;6246368;28;20230;-53
2023/09/23 07:24:57;;;;;;;1.77;1.50;;;;;;;13.08;100.00;97556.16;6249862;28;20221;-54
2023/09/23 07:27:59;;;;;;;1.47;1.27;;;;;;;13.07;100.00;97551.88;6247991;28;22118;-53
2023/09/23 07:31:01;;;;;;;1.57;1.47;;;;;;;13.07;100.00;97568.72;6240649;28;20289;-53
2023/09/23 07:34:03;;;;;;;1.40;1.20;;;;;;;13.02;100.00;97573.25;6247874;28;20632;-54
2023/09/23 07:37:06;;;;;;;2.47;1.70;;;;;;;13.03;100.00;97577.53;6245728;28;20583;-53
2023/09/23 07:40:09;;;;;;;2.07;1.30;;;;;;;13.06;100.00;97575.13;6244904;28;20376;-54
2023/09/23 07:43:11;;;;;;;2.57;1.73;;;;;;;12.95;100.00;97560.09;6255253;28;20239;-52
2023/09/23 07:46:13;;;;;;;1.87;1.63;;;;;;;13.16;100.00;97579.72;6248947;28;20242;-51
2023/09/23 07:49:15;;;;;;;3.53;1.60;;;;;;;13.17;100.00;97595.50;6246813;28;20231;-54
2023/09/23 07:52:17;;;;;;;1.53;1.43;;;;;;;13.20;100.00;97596.88;6247541;28;20305;-52
2023/09/23 07:55:19;;;;;;;1.67;1.57;;;;;;;13.03;100.00;97581.00;6247921;28;20739;-53
2023/09/23 07:58:21;;;;;;;2.50;1.77;;;;;;;13.23;100.00;97592.88;6251242;28;20231;-54
2023/09/23 08:01:23;;;;;;;3.07;1.90;;;;;;;13.25;100.00;97601.44;6240943;28;20236;-52
2023/09/23 08:04:26;;;;;;;2.10;1.90;;;;;;;13.22;100.00;97602.78;6248391;28;20223;-53
2023/09/23 08:07:27;;;;;;;2.43;1.77;;;;;;;13.24;100.00;97602.53;6244929;28;20782;-54
2023/09/23 08:10:31;;;;;;;2.50;1.90;;;;;;;13.30;100.00;97609.50;6255261;28;20250;-53
2023/09/23 08:13:33;;;;;;;2.40;1.43;;;;;;;13.31;100.00;97603.09;6232901;28;20717;-52
2023/09/23 08:16:34;;;;;;;1.50;1.30;;;;;;;13.21;100.00;97586.97;6246182;28;20231;-54
2023/09/23 08:19:37;;;;;;;2.30;1.93;;;;;;;13.18;100.00;97573.03;6244755;28;20232;-54
2023/09/23 08:22:40;;;;;;;3.60;2.37;;;;;;;13.39;100.00;97611.41;6241363;28;20705;-54
2023/09/23 08:25:42;;;;;;;2.67;2.13;;;;;;;13.42;100.00;97610.09;6242796;28;20644;-54
2023/09/23 08:28:45;;;;;;;2.73;2.20;;;;;;;13.51;100.00;97600.50;6243109;28;20329;-55
2023/09/23 08:31:47;;;;;;;2.80;1.87;;;;;;;13.59;100.00;97599.97;6231605;28;20275;-56
2023/09/23 08:34:49;;;;;;;4.03;2.43;;;;;;;13.68;100.00;97606.44;6244967;28;20226;-56
2023/09/23 08:38:10;;;;;;;2.90;2.17;;;;;;;13.71;100.00;97613.16;6245576;28;20219;-52
2023/09/23 08:41:16;;;;;;;3.57;2.43;;;;;;;13.74;100.00;97603.78;6241600;28;20243;-55
2023/09/23 08:44:22;;;;;;;2.37;2.17;;;;;;;13.79;100.00;97606.47;6247125;28;20583;-56
2023/09/23 08:47:25;;;;;;;2.90;2.60;;;;;;;13.81;100.00;97613.16;6246050;28;20703;-54
2023/09/23 08:50:29;;;;;;;2.10;1.90;;;;;;;13.89;100.00;97614.50;6247292;28;20235;-56
2023/09/23 08:53:33;;;;;;;4.30;3.20;;;;;;;13.87;100.00;97614.00;6245407;28;20236;-55
2023/09/23 08:56:35;;;;;;;2.83;2.20;;;;;;;13.90;100.00;97618.81;6251155;28;20231;-56
2023/09/23 08:59:37;;;;;;;4.53;2.83;;;;;;;13.98;100.00;97615.59;6249455;28;20703;-55
2023/09/23 09:02:39;;;;;;;3.43;3.13;;;;;;;13.98;100.00;97614.81;6243043;28;20609;-54
2023/09/23 09:05:43;;;;;;;3.17;2.87;;;;;;;14.03;100.00;97629.00;6248522;28;20241;-56
2023/09/23 09:08:45;;;;;;;3.90;3.30;;;;;;;13.85;100.00;97586.69;6244861;28;20340;-55
2023/09/23 09:11:51;;;;;;;3.83;3.47;;;;;;;14.11;100.00;97617.78;6245264;28;20231;-55
2023/09/23 09:14:55;;;;;;;3.60;3.30;;;;;;;14.19;100.00;97629.88;6250016;28;20227;-56
2023/09/23 09:17:58;;;;;;;4.47;3.77;;;;;;;14.25;100.00;97617.28;6250313;28;20227;-54
2023/09/23 09:21:00;;;;;;;4.77;3.43;;;;;;;14.27;100.00;97613.25;6241084;28;20368;-55
2023/09/23 09:24:05;;;;;;;4.60;3.67;;;;;;;14.26;100.00;97613.50;6254213;28;20369;-56
2023/09/23 09:27:12;;;;;;;4.80;4.00;;;;;;;14.27;100.00;97613.25;6247621;28;20612;-56
2023/09/23 09:30:15;;;;;;;3.73;3.33;;;;;;;14.28;100.00;97622.88;6244803;28;20209;-56
2023/09/23 09:33:19;;;;;;;6.03;4.10;;;;;;;14.28;100.00;97627.44;6266300;28;20784;-56
2023/09/23 09:36:23;;;;;;;7.63;3.70;;;;;;;14.15;100.00;97608.16;6249232;28;20239;-54
2023/09/23 09:39:33;;;;;;;4.33;3.93;;;;;;;14.23;100.00;97627.44;6251295;28;20231;-57
2023/09/23 09:42:40;;;;;;;5.30;3.90;;;;;;;14.37;100.00;97629.31;6240241;28;20245;-55
2023/09/23 09:45:45;;;;;;;3.47;3.17;;;;;;;14.37;100.00;97633.88;6257443;28;20232;-56
2023/09/23 09:48:49;;;;;;;4.30;3.10;;;;;;;14.27;100.00;97607.09;6239495;28;20235;-57
2023/09/23 09:51:52;;;;;;;4.03;2.90;;;;;;;14.56;100.00;97637.66;6242068;28;20274;-57
2023/09/23 09:54:57;;;;;;;3.40;2.90;;;;;;;14.64;100.00;97653.22;6244548;28;20231;-57
2023/09/23 09:58:01;;;;;;;3.30;2.87;;;;;;;14.67;100.00;97650.00;6247468;28;20235;-55
2023/09/23 10:01:04;;;;;;;4.03;3.37;;;;;;;14.68;100.00;97645.47;6238937;28;20240;-56
2023/09/23 10:04:10;;;;;;;4.00;3.27;;;;;;;14.73;100.00;97653.50;6246784;28;20729;-55
2023/09/23 10:07:12;;;;;;;2.77;2.57;;;;;;;14.80;99.88;97661.28;6243633;28;20231;-56
2023/09/23 10:10:32;;;;;;;5.73;3.20;;;;;;;14.85;100.00;97659.38;6246479;28;20230;-57
2023/09/23 10:13:35;;;;;;;2.93;2.63;;;;;;;14.92;98.22;97656.41;6252986;28;20231;-57
2023/09/23 10:16:38;;;;;;;2.83;2.43;;;;;;;14.92;100.00;97656.41;6247943;28;20231;-57
2023/09/23 10:19:42;;;;;;;5.93;4.20;;;;;;;14.91;100.00;97657.50;6249140;28;20229;-56
2023/09/23 10:22:52;;;;;;;3.03;2.73;;;;;;;14.95;99.77;97659.38;6247385;28;20758;-56
2023/09/23 10:25:55;;;;;;;5.37;4.10;;;;;;;15.00;93.95;97655.09;6245701;28;20601;-55
2023/09/23 10:29:04;;;;;;;3.03;2.73;;;;;;;15.07;91.84;97642.97;6252140;28;20235;-56
2023/09/23 10:32:17;;;;;;;3.67;2.40;;;;;;;15.19;88.14;97642.69;6250913;28;20228;-57
2023/09/23 10:35:23;;;;;;;2.50;2.30;;;;;;;15.13;90.72;97643.78;6241112;28;20246;-56
2023/09/23 10:38:35;;;;;;;2.87;2.40;;;;;;;15.15;89.73;97634.38;6247756;28;20227;-55
2023/09/23 10:41:37;;;;;;;3.97;3.10;;;;;;;15.20;87.39;97642.41;6250867;28;20239;-56
2023/09/23 10:44:40;;;;;;;4.10;3.70;;;;;;;15.21;86.75;97657.44;6249885;28;20237;-56
2023/09/23 10:47:43;;;;;;;3.43;2.30;;;;;;;15.25;90.93;97643.50;6250252;28;20250;-56
2023/09/23 10:50:47;;;;;;;5.47;4.63;;;;;;;15.29;87.81;97661.47;6230897;28;20231;-56
2023/09/23 10:53:52;;;;;;;3.10;2.50;;;;;;;15.34;91.56;97658.75;6241490;28;20692;-59
2023/09/23 10:56:55;;;;;;;3.93;2.70;;;;;;;15.39;85.86;97663.31;6244244;28;20231;-57
2023/09/23 10:59:58;;;;;;;2.55;2.35;;;;;;;15.39;86.11;97636.47;6250624;28;20463;-56
2023/09/23 11:03:12;;;;;;;5.00;4.10;;;;;;;15.49;86.38;97653.34;6245058;28;20271;-56
2023/09/23 11:06:16;;;;;;;2.30;2.10;;;;;;;15.55;85.84;97664.06;6250859;28;20308;-56
2023/09/23 11:09:21;;;;;;;1.77;1.67;;;;;;;15.55;85.64;97672.91;6248618;28;20652;-54
2023/09/23 11:12:33;;;;;;;2.60;2.00;;;;;;;15.57;83.69;97680.72;6246715;28;20242;-56
2023/09/23 11:15:37;;;;;;;2.53;2.30;;;;;;;15.60;86.16;97674.78;6250791;28;20238;-55
2023/09/23 11:18:39;;;;;;;2.87;2.30;;;;;;;15.63;84.09;97687.69;6251182;28;21386;-55
2023/09/23 11:21:46;;;;;;;3.13;2.33;;;;;;;15.62;85.85;97678.00;6246332;28;20223;-55
2023/09/23 11:24:49;;;;;;;1.97;1.77;;;;;;;15.64;87.04;97681.25;6246109;28;20319;-55
2023/09/23 11:27:51;;;;;;;4.27;2.60;;;;;;;15.63;86.66;97687.69;6246027;28;20704;-52
2023/09/23 11:30:56;;;;;;;3.70;3.37;;;;;;;15.53;84.89;97696.56;6247173;28;20310;-55
2023/09/23 11:33:58;;;;;;;3.70;3.23;;;;;;;15.67;85.71;97697.63;6247250;28;20231;-55
2023/09/23 11:37:01;;;;;;;2.43;2.23;;;;;;;15.73;83.14;97693.84;6247565;28;20235;-55
2023/09/23 11:40:06;;;;;;;1.73;1.63;;;;;;;15.71;82.77;97706.75;6243914;28;20265;-53
2023/09/23 11:43:09;;;;;;;1.70;1.60;;;;;;;15.70;82.66;97702.44;6245479;28;20239;-55
2023/09/23 11:46:14;;;;;;;4.07;2.00;;;;;;;15.78;82.79;97684.97;6248629;28;20235;-54
2023/09/23 11:50:07;;;;;;;2.40;2.00;;;;;;;15.93;81.61;97674.13;6238389;28;20398;-51
2023/09/23 11:53:11;;;;;;;2.93;2.40;;;;;;;16.02;79.95;97666.31;6246254;28;20283;-54
2023/09/23 11:56:15;;;;;;;1.70;1.60;;;;;;;16.04;80.31;97666.03;6248932;28;20226;-51
2023/09/23 11:59:21;;;;;;;2.77;2.27;;;;;;;16.03;79.89;97670.59;6248068;28;20223;-56
2023/09/23 12:02:23;;;;;;;3.43;2.50;;;;;;;16.09;76.86;97674.84;6241785;28;20793;-53
2023/09/23 12:05:29;;;;;;;3.30;2.70;;;;;;;16.00;77.92;97687.25;6249871;28;20281;-53
2023/09/23 12:08:33;;;;;;;2.50;2.20;;;;;;;16.09;78.53;97693.66;6244878;28;20336;-52
2023/09/23 12:11:36;;;;;;;3.50;2.87;;;;;;;16.12;78.16;97698.50;6246638;28;20241;-55
2023/09/23 12:14:42;;;;;;;3.93;2.73;;;;;;;16.10;79.03;97695.28;6242557;28;20234;-57
2023/09/23 12:17:45;;;;;;;3.20;2.20;;;;;;;16.04;79.85;97700.97;6242092;28;20219;-58
2023/09/23 12:20:47;;;;;;;4.93;4.07;;;;;;;16.13;78.37;97702.78;6245990;28;20230;-56
2023/09/23 12:23:55;;;;;;;5.33;4.83;;;;;;;16.01;79.28;97696.97;6251312;28;20741;-55
2023/09/23 12:26:58;;;;;;;3.83;2.67;;;;;;;15.97;79.63;97712.81;6247519;28;20365;-56
2023/09/23 12:30:01;;;;;;;5.37;3.97;;;;;;;16.01;80.00;97713.09;6233978;28;20225;-57
2023/09/23 12:33:04;;;;;;;3.80;2.53;;;;;;;16.06;78.57;97694.25;6253514;28;20242;-56
2023/09/23 12:36:07;;;;;;;6.17;5.57;;;;;;;16.05;78.53;97707.94;6254285;28;20676;-57
2023/09/23 12:39:10;;;;;;;2.13;2.00;;;;;;;16.15;78.84;97697.13;6266348;28;20207;-55
2023/09/23 12:42:14;;;;;;;2.60;1.97;;;;;;;16.14;79.54;97719.72;6260556;28;20253;-56
2023/09/23 12:45:17;;;;;;;4.27;2.27;;;;;;;16.23;79.46;97704.63;6254915;28;20203;-57
2023/09/23 12:48:19;;;;;;;2.63;2.27;;;;;;;16.33;79.71;97712.63;6256290;28;20204;-52
2023/09/23 12:51:22;;;;;;;3.63;3.20;;;;;;;16.55;75.64;97704.16;6258227;28;20324;-56
2023/09/23 12:54:25;;;;;;;2.37;2.17;;;;;;;16.52;76.05;97700.13;6260619;28;20702;-56
2023/09/23 12:57:27;;;;;;;2.20;2.00;;;;;;;16.56;75.85;97697.69;6256750;28;20591;-54
2023/09/23 13:00:29;;;;;;;3.17;2.87;;;;;;;16.41;75.35;97673.59;6247874;28;20227;-54
2023/09/23 13:03:32;;;;;;;2.67;2.20;;;;;;;16.84;72.93;97704.22;6241469;28;20237;-52
2023/09/23 13:06:35;;;;;;;13.97;9.53;;;;;;;16.91;74.48;97712.78;6244589;28;20223;-57
2023/09/23 13:09:38;;;;;;;3.67;2.67;;;;;;;16.81;72.18;97698.63;6239537;28;20713;-58
2023/09/23 13:12:40;;;;;;;2.80;2.43;;;;;;;17.05;70.58;97721.03;6227908;28;20267;-55
2023/09/23 13:15:43;;;;;;;2.60;2.33;;;;;;;16.85;71.26;97721.19;6235559;28;20365;-58
2023/09/23 13:18:46;;;;;;;3.70;2.43;;;;;;;16.68;73.74;97714.28;6235471;28;20219;-58
2023/09/23 13:21:49;;;;;;;2.90;2.00;;;;;;;16.75;72.09;97730.16;6240577;28;20219;-56
2023/09/23 13:24:52;;;;;;;8.13;4.87;;;;;;;16.69;74.26;97748.16;6241922;28;20215;-58
2023/09/23 13:27:55;;;;;;;3.27;2.20;;;;;;;16.65;75.96;97757.06;6242493;28;20238;-56
2023/09/23 13:30:57;;;;;;;10.13;8.50;;;;;;;16.67;77.53;97754.91;6239201;28;20242;-56
2023/09/23 13:34:00;;;;;;;7.70;6.57;;;;;;;16.65;75.25;97763.28;6241673;28;20234;-57
2023/09/23 13:37:06;;;;;;;6.77;3.77;;;;;;;16.61;74.97;97762.22;6236794;28;20727;-58
2023/09/23 13:40:13;;;;;;;2.43;2.23;;;;;;;16.77;72.38;97746.81;6254817;28;20226;-58
2023/09/23 13:43:16;;;;;;;2.93;1.60;;;;;;;16.51;75.17;97752.31;6253366;28;20243;-58
2023/09/23 13:46:18;;;;;;;2.50;2.30;;;;;;;16.39;76.51;97759.09;6249425;28;20235;-57
2023/09/23 13:49:21;;;;;;;2.40;1.60;;;;;;;16.32;76.37;97745.19;6254533;28;20237;-56
2023/09/23 13:52:25;;;;;;;2.30;2.07;;;;;;;16.33;79.95;97752.94;6229605;28;20253;-56
2023/09/23 13:55:29;;;;;;;1.60;1.50;;;;;;;16.27;80.31;97755.97;6249116;28;20234;-55
2023/09/23 13:58:33;;;;;;;2.90;1.77;;;;;;;16.30;80.50;97752.69;6248062;28;20269;-56
2023/09/23 14:01:36;;;;;;;2.23;1.53;;;;;;;16.26;77.14;97771.28;6258278;28;20230;-58
2023/09/23 14:04:38;;;;;;;1.97;1.70;;;;;;;16.24;77.22;97770.75;6249453;28;20242;-56
2023/09/23 14:07:41;;;;;;;2.17;1.97;;;;;;;16.01;77.28;97742.63;6247515;28;20734;-54
2023/09/23 14:10:44;;;;;;;2.80;1.90;;;;;;;16.14;79.73;97771.59;6244330;28;20242;-57
2023/09/23 14:13:48;;;;;;;3.87;1.50;;;;;;;16.09;79.92;97763.53;6246891;28;20238;-55
2023/09/23 14:16:51;;;;;;;1.60;1.50;;;;;;;15.99;80.50;97747.47;6247573;28;20230;-53